createdAt,value
2022-08-24T00:01:54.937Z,14.32
2022-08-24T00:04:22.744Z,13.32
2022-08-24T00:06:49.942Z,11.48
2022-08-24T00:09:17.147Z,10.90
2022-08-24T00:11:44.655Z,10.02
2022-08-24T00:14:11.828Z,13.38
2022-08-24T00:16:39.718Z,12.30
2022-08-24T00:19:06.880Z,11.60
2022-08-24T00:21:34.263Z,7.57
2022-08-24T00:24:03.190Z,8.55
2022-08-24T00:26:30.351Z,8.32
2022-08-24T00:28:58.581Z,7.55
2022-08-24T00:31:25.999Z,7.85
2022-08-24T00:33:54.203Z,8.43
2022-08-24T00:36:22.172Z,6.88
2022-08-24T00:38:49.856Z,5.60
2022-08-24T00:41:17.976Z,6.55
2022-08-24T00:43:54.872Z,6.05
2022-08-24T00:46:55.033Z,6.22
2022-08-24T00:49:50.495Z,6.55
2022-08-24T00:52:43.193Z,5.53
2022-08-24T00:55:20.949Z,7.00
2022-08-24T00:57:51.466Z,6.70
2022-08-24T01:00:26.369Z,7.78
2022-08-24T01:03:00.933Z,8.70
2022-08-24T01:05:28.080Z,7.00
2022-08-24T01:07:55.298Z,8.10
2022-08-24T01:10:27.137Z,6.78
2022-08-24T01:13:01.461Z,7.90
2022-08-24T01:15:37.380Z,6.72
2022-08-24T01:18:26.852Z,6.78
2022-08-24T01:21:27.828Z,7.85
2022-08-24T01:24:02.104Z,7.03
2022-08-24T01:26:51.178Z,6.82
2022-08-24T01:29:30.997Z,7.75
2022-08-24T01:31:58.458Z,6.72
2022-08-24T01:34:26.139Z,7.97
2022-08-24T01:36:55.683Z,7.70
2022-08-24T01:39:32.370Z,6.65
2022-08-24T01:42:00.170Z,7.60
2022-08-24T01:44:33.404Z,6.97
2022-08-24T01:47:06.682Z,7.57
2022-08-24T01:49:40.962Z,7.78
2022-08-24T01:52:12.794Z,8.13
2022-08-24T01:54:40.224Z,7.63
2022-08-24T01:57:16.337Z,8.40
2022-08-24T01:59:45.253Z,8.43
2022-08-24T02:02:19.173Z,8.40
2022-08-24T02:04:46.385Z,9.75
2022-08-24T02:07:13.767Z,7.97
2022-08-24T02:09:41.284Z,8.00
2022-08-24T02:12:08.961Z,9.87
2022-08-24T02:14:36.497Z,9.30
2022-08-24T02:17:08.608Z,8.30
2022-08-24T02:19:36.904Z,8.52
2022-08-24T02:22:05.431Z,11.35
2022-08-24T02:24:33.563Z,9.75
2022-08-24T02:27:01.836Z,9.55
2022-08-24T02:29:28.969Z,9.20
2022-08-24T02:31:57.214Z,10.13
2022-08-24T02:34:25.096Z,13.98
2022-08-24T02:36:53.047Z,11.63
2022-08-24T02:41:51.499Z,9.60
2022-08-24T02:44:19.544Z,9.63
2022-08-24T02:46:46.864Z,13.70
2022-08-24T02:49:14.149Z,10.75
2022-08-24T02:51:45.496Z,11.40
2022-08-24T02:54:18.859Z,13.95
2022-08-24T02:56:48.186Z,14.65
2022-08-24T02:59:17.119Z,11.93
2022-08-24T03:01:46.373Z,16.60
2022-08-24T03:04:18.868Z,11.18
2022-08-24T03:06:46.605Z,12.02
2022-08-24T03:09:14.039Z,12.10
2022-08-24T03:11:45.147Z,13.95
2022-08-24T03:14:13.882Z,10.50
2022-08-24T03:16:41.552Z,12.60
2022-08-24T03:19:08.845Z,5.60
2022-08-24T03:21:38.026Z,7.13
2022-08-24T03:24:05.594Z,6.30
2022-08-24T03:26:32.820Z,6.63
2022-08-24T03:29:00.505Z,7.97
2022-08-24T03:31:30.258Z,8.80
2022-08-24T03:36:26.460Z,10.55
2022-08-24T03:38:54.612Z,13.45
2022-08-24T03:41:22.917Z,10.48
2022-08-24T03:43:50.568Z,8.35
2022-08-24T03:46:28.142Z,8.52
2022-08-24T03:48:58.127Z,9.00
2022-08-24T03:51:28.405Z,10.35
2022-08-24T03:53:58.993Z,8.07
2022-08-24T03:56:28.860Z,7.75
2022-08-24T03:58:57.241Z,8.43
2022-08-24T04:01:27.420Z,12.05
2022-08-24T04:03:55.150Z,10.53
2022-08-24T04:06:26.711Z,12.73
2022-08-24T04:08:55.769Z,12.43
2022-08-24T04:13:56.057Z,9.02
2022-08-24T04:16:25.477Z,8.75
2022-08-24T04:19:05.137Z,7.00
2022-08-24T04:21:35.893Z,8.80
2022-08-24T04:24:08.176Z,6.50
2022-08-24T04:26:44.986Z,6.53
2022-08-24T04:29:18.731Z,10.35
2022-08-24T04:31:51.184Z,9.57
2022-08-24T04:34:18.849Z,9.68
2022-08-24T04:36:46.901Z,10.95
2022-08-24T04:39:15.165Z,10.20
2022-08-24T04:41:42.371Z,7.90
2022-08-24T04:44:11.682Z,11.35
2022-08-24T04:46:39.189Z,12.68
2022-08-24T04:49:08.585Z,12.32
2022-08-24T04:51:37.063Z,11.40
2022-08-24T04:54:07.644Z,10.10
2022-08-24T04:56:35.676Z,11.25
2022-08-24T04:59:04.903Z,10.98
2022-08-24T05:01:33.338Z,9.90
2022-08-24T05:04:03.867Z,10.68
2022-08-24T05:06:33.268Z,9.43
2022-08-24T05:09:02.728Z,9.75
2022-08-24T05:11:30.535Z,10.68
2022-08-24T05:13:58.796Z,10.60
2022-08-24T05:16:27.299Z,12.48
2022-08-24T05:18:56.186Z,11.02
2022-08-24T05:21:24.478Z,9.75
2022-08-24T05:23:54.522Z,10.07
2022-08-24T05:26:26.590Z,8.60
2022-08-24T05:28:58.400Z,8.50
2022-08-24T05:31:31.603Z,9.57
2022-08-24T05:34:04.565Z,8.85
2022-08-24T05:36:37.393Z,10.73
2022-08-24T05:39:13.816Z,9.63
2022-08-24T05:41:47.509Z,8.40
2022-08-24T05:44:25.940Z,8.88
2022-08-24T05:46:57.582Z,7.32
2022-08-24T05:49:25.890Z,9.10
2022-08-24T05:51:54.457Z,10.35
2022-08-24T05:54:26.250Z,10.27
2022-08-24T05:57:03.959Z,10.35
2022-08-24T05:59:36.077Z,10.48
2022-08-24T06:02:09.463Z,11.05
2022-08-24T06:04:37.649Z,10.68
2022-08-24T06:09:39.214Z,8.25
2022-08-24T06:12:08.199Z,9.45
2022-08-24T06:14:36.492Z,10.85
2022-08-24T06:17:07.938Z,13.43
2022-08-24T06:19:36.006Z,9.45
2022-08-24T06:22:04.580Z,10.95
2022-08-24T06:24:55.215Z,10.18
2022-08-24T06:27:23.338Z,10.75
2022-08-24T06:30:09.357Z,9.30
2022-08-24T06:32:45.256Z,10.52
2022-08-24T06:35:29.396Z,9.00
2022-08-24T06:37:57.844Z,9.55
2022-08-24T06:40:25.715Z,10.25
2022-08-24T06:42:53.405Z,11.10
2022-08-24T06:45:29.181Z,8.57
2022-08-24T06:47:56.652Z,8.05
2022-08-24T06:50:24.858Z,9.40
2022-08-24T06:52:52.056Z,9.17
2022-08-24T06:55:19.341Z,7.68
2022-08-24T06:57:51.670Z,7.10
2022-08-24T07:00:21.296Z,7.88
2022-08-24T07:05:16.853Z,7.28
2022-08-24T07:08:04.913Z,8.70
2022-08-24T07:10:33.791Z,8.10
2022-08-24T07:13:00.986Z,9.30
2022-08-24T07:15:28.130Z,10.52
2022-08-24T07:18:09.606Z,9.48
2022-08-24T07:20:39.216Z,10.40
2022-08-24T07:23:14.022Z,7.25
2022-08-24T07:25:44.895Z,10.40
2022-08-24T07:28:16.232Z,11.07
2022-08-24T07:30:44.477Z,11.23
2022-08-24T07:33:13.847Z,10.43
2022-08-24T07:35:41.660Z,11.43
2022-08-24T07:38:11.379Z,10.77
2022-08-24T07:41:01.717Z,15.05
2022-08-24T07:43:26.384Z,12.85
2022-08-24T07:45:54.198Z,17.23
2022-08-24T07:48:21.865Z,8.73
2022-08-24T07:50:50.524Z,17.00
2022-08-24T07:53:20.847Z,14.85
2022-08-24T07:55:56.059Z,15.38
2022-08-24T07:58:24.782Z,12.38
2022-08-24T08:00:52.204Z,15.20
2022-08-24T08:03:22.705Z,12.85
2022-08-24T08:05:55.782Z,10.85
2022-08-24T08:08:27.273Z,11.02
2022-08-24T08:10:56.249Z,10.93
2022-08-24T08:13:23.627Z,11.23
2022-08-24T08:15:51.566Z,12.03
2022-08-24T08:18:19.257Z,13.38
2022-08-24T08:20:48.002Z,10.18
2022-08-24T08:23:33.859Z,11.70
2022-08-24T08:26:19.896Z,11.93
2022-08-24T08:29:02.705Z,9.23
2022-08-24T08:31:34.247Z,9.90
2022-08-24T08:34:03.993Z,10.75
2022-08-24T08:36:32.549Z,10.15
2022-08-24T08:39:01.051Z,8.55
2022-08-24T08:41:59.997Z,9.07
2022-08-24T08:44:38.897Z,8.15
2022-08-24T08:47:11.864Z,9.70
2022-08-24T08:50:04.781Z,9.40
2022-08-24T08:53:33.497Z,9.68
2022-08-24T08:56:43.549Z,7.03
2022-08-24T08:59:35.160Z,7.10
2022-08-24T09:02:32.433Z,7.53
2022-08-24T09:06:11.738Z,6.35
2022-08-24T09:09:03.547Z,9.95
2022-08-24T09:11:45.264Z,11.32
2022-08-24T09:14:51.887Z,10.68
2022-08-24T09:17:58.089Z,8.05
2022-08-24T09:20:47.023Z,7.90
2022-08-24T09:23:32.109Z,8.25
2022-08-24T09:26:38.960Z,8.30
2022-08-24T09:29:18.246Z,10.20
2022-08-24T09:31:45.930Z,8.07
2022-08-24T09:34:34.426Z,8.57
2022-08-24T09:37:31.086Z,10.50
2022-08-24T09:40:17.318Z,8.77
2022-08-24T09:43:01.346Z,9.23
2022-08-24T09:45:54.733Z,9.70
2022-08-24T09:48:25.572Z,8.85
2022-08-24T09:51:25.356Z,8.13
2022-08-24T09:54:10.279Z,7.57
2022-08-24T09:57:19.905Z,11.02
2022-08-24T10:00:23.484Z,8.52
2022-08-24T10:03:36.258Z,7.75
2022-08-24T10:06:19.876Z,8.35
2022-08-24T10:09:03.928Z,8.32
2022-08-24T10:11:58.712Z,6.22
2022-08-24T10:14:46.216Z,7.40
2022-08-24T10:17:20.308Z,6.93
2022-08-24T10:20:02.043Z,7.72
2022-08-24T10:23:41.548Z,7.35
2022-08-24T10:26:20.718Z,7.10
2022-08-24T10:29:20.768Z,6.80
2022-08-24T10:32:14.329Z,5.95
2022-08-24T10:35:11.565Z,7.22
2022-08-24T10:38:29.246Z,6.50
2022-08-24T10:41:27.099Z,6.30
2022-08-24T10:44:15.328Z,7.40
2022-08-24T10:49:36.640Z,8.43
2022-08-24T10:52:44.121Z,7.38
2022-08-24T10:55:15.233Z,6.85
2022-08-24T10:57:57.179Z,7.28
2022-08-24T11:00:29.158Z,6.68
2022-08-24T11:03:13.959Z,6.90
2022-08-24T11:05:53.291Z,6.80
2022-08-24T11:08:32.706Z,6.90
2022-08-24T11:11:13.670Z,6.93
2022-08-24T11:14:23.118Z,9.05
2022-08-24T11:16:54.584Z,9.43
2022-08-24T11:19:27.398Z,8.23
2022-08-24T11:22:05.046Z,8.68
2022-08-24T11:24:45.432Z,7.50
2022-08-24T11:27:33.672Z,6.85
2022-08-24T11:32:51.197Z,6.60
2022-08-24T11:35:23.304Z,8.40
2022-08-24T11:37:56.056Z,8.73
2022-08-24T11:40:30.499Z,6.60
2022-08-24T11:43:54.476Z,7.00
2022-08-24T11:46:24.373Z,5.80
2022-08-24T11:49:39.971Z,6.22
2022-08-24T11:52:33.721Z,6.47
2022-08-24T11:55:10.740Z,7.28
2022-08-24T11:57:48.316Z,5.70
2022-08-24T12:00:21.122Z,7.65
2022-08-24T12:03:25.018Z,5.97
2022-08-24T12:06:33.859Z,6.03
2022-08-24T12:09:41.461Z,6.10
2022-08-24T12:12:53.637Z,6.47
2022-08-24T12:15:51.338Z,6.57
2022-08-24T12:18:33.702Z,7.50
2022-08-24T12:21:00.877Z,7.20
2022-08-24T12:24:03.967Z,5.45
2022-08-24T12:27:06.230Z,6.22
2022-08-24T12:29:59.828Z,6.47
2022-08-24T12:32:48.018Z,6.82
2022-08-24T12:35:33.459Z,7.28
2022-08-24T12:38:16.513Z,7.05
2022-08-24T12:40:56.157Z,13.68
2022-08-24T12:43:53.118Z,8.13
2022-08-24T12:46:24.807Z,7.80
2022-08-24T12:49:24.200Z,6.25
2022-08-24T12:52:39.488Z,6.80
2022-08-24T12:55:52.269Z,5.50
2022-08-24T12:58:59.138Z,8.20
2022-08-24T13:01:35.754Z,6.45
2022-08-24T13:04:15.028Z,7.63
2022-08-24T13:07:06.903Z,8.63
2022-08-24T13:09:44.230Z,7.57
2022-08-24T13:12:30.203Z,7.05
2022-08-24T13:15:19.427Z,6.05
2022-08-24T13:17:47.699Z,6.25
2022-08-24T13:20:19.594Z,7.60
2022-08-24T13:23:12.417Z,6.70
2022-08-24T13:25:56.174Z,6.05
2022-08-24T13:28:23.227Z,8.30
2022-08-24T13:30:53.483Z,6.57
2022-08-24T13:33:40.173Z,6.22
2022-08-24T13:36:28.729Z,7.25
2022-08-24T13:39:22.011Z,7.57
2022-08-24T13:42:16.616Z,6.97
2022-08-24T13:45:30.823Z,7.35
2022-08-24T13:48:07.122Z,5.93
2022-08-24T13:51:24.915Z,7.65
2022-08-24T13:54:09.983Z,8.05
2022-08-24T13:57:06.603Z,7.28
2022-08-24T14:00:24.765Z,7.95
2022-08-24T14:03:04.211Z,7.45
2022-08-24T14:05:54.213Z,7.40
2022-08-24T14:09:01.337Z,6.78
2022-08-24T14:12:07.495Z,6.25
2022-08-24T14:15:10.971Z,6.47
2022-08-24T14:17:53.886Z,6.32
2022-08-24T14:21:10.449Z,7.28
2022-08-24T14:24:12.732Z,5.72
2022-08-24T14:26:40.000Z,5.30
2022-08-24T14:29:19.117Z,6.45
2022-08-24T14:31:58.809Z,6.90
2022-08-24T14:35:18.092Z,7.40
2022-08-24T14:41:19.894Z,5.28
2022-08-24T14:44:06.441Z,5.32
2022-08-24T14:47:01.409Z,8.07
2022-08-24T14:49:46.341Z,5.57
2022-08-24T14:52:29.293Z,5.45
2022-08-24T14:55:15.188Z,6.00
2022-08-24T14:58:18.326Z,6.78
2022-08-24T15:01:19.431Z,6.13
2022-08-24T15:04:37.857Z,7.32
2022-08-24T15:07:27.924Z,4.80
2022-08-24T15:09:57.497Z,6.68
2022-08-24T15:12:32.894Z,4.82
2022-08-24T15:15:09.578Z,5.70
2022-08-24T15:18:09.683Z,6.57
2022-08-24T15:21:17.452Z,6.05
2022-08-24T15:24:21.470Z,6.32
2022-08-24T15:27:00.135Z,6.55
2022-08-24T15:29:32.362Z,5.35
2022-08-24T15:32:07.225Z,5.35
2022-08-24T15:34:42.682Z,4.78
2022-08-24T15:37:10.263Z,6.25
2022-08-24T15:39:37.706Z,5.55
2022-08-24T15:42:12.873Z,5.82
2022-08-24T15:44:46.424Z,5.05
2022-08-24T15:47:39.052Z,4.93
2022-08-24T15:50:21.934Z,6.50
2022-08-24T15:52:54.404Z,7.53
2022-08-24T15:55:56.860Z,5.32
2022-08-24T15:58:38.325Z,9.13
2022-08-24T16:01:30.055Z,7.13
2022-08-24T16:04:03.694Z,7.30
2022-08-24T16:06:33.739Z,5.93
2022-08-24T16:09:09.173Z,5.80
2022-08-24T16:11:37.847Z,7.50
2022-08-24T16:14:51.016Z,5.93
2022-08-24T16:17:35.618Z,5.88
2022-08-24T16:20:32.187Z,6.25
2022-08-24T16:23:22.403Z,6.75
2022-08-24T16:25:51.285Z,6.25
2022-08-24T16:28:21.766Z,7.22
2022-08-24T16:31:07.594Z,5.72
2022-08-24T16:33:47.032Z,8.68
2022-08-24T16:36:18.068Z,6.88
2022-08-24T16:38:49.355Z,4.65
2022-08-24T16:41:21.220Z,6.82
2022-08-24T16:43:48.826Z,5.70
2022-08-24T16:46:22.000Z,6.13
2022-08-24T16:48:49.585Z,6.93
2022-08-24T16:51:16.707Z,5.85
2022-08-24T16:53:43.805Z,6.95
2022-08-24T16:56:13.618Z,5.43
2022-08-24T16:58:45.367Z,6.22
2022-08-24T17:01:13.424Z,5.72
2022-08-24T17:03:40.925Z,6.50
2022-08-24T17:06:11.726Z,7.47
2022-08-24T17:08:40.080Z,6.63
2022-08-24T17:11:07.933Z,8.35
2022-08-24T17:13:50.953Z,6.57
2022-08-24T17:16:20.610Z,6.95
2022-08-24T17:18:47.802Z,6.63
2022-08-24T17:21:15.108Z,6.85
2022-08-24T17:23:43.218Z,6.38
2022-08-24T17:26:21.746Z,6.00
2022-08-24T17:28:53.790Z,7.90
2022-08-24T17:31:24.033Z,7.50
2022-08-24T17:33:52.468Z,8.93
2022-08-24T17:38:55.594Z,9.43
2022-08-24T17:41:25.565Z,7.85
2022-08-24T17:43:53.989Z,7.28
2022-08-24T17:48:49.262Z,7.13
2022-08-24T17:51:16.407Z,7.05
2022-08-24T17:53:43.528Z,6.45
2022-08-24T17:56:14.977Z,8.45
2022-08-24T17:59:03.892Z,7.20
2022-08-24T18:01:31.614Z,6.68
2022-08-24T18:03:58.849Z,8.50
2022-08-24T18:06:27.249Z,7.75
2022-08-24T18:08:57.557Z,8.45
2022-08-24T18:11:26.174Z,8.73
2022-08-24T18:13:54.002Z,8.63
2022-08-24T18:16:27.690Z,7.68
2022-08-24T18:18:55.123Z,7.72
2022-08-24T18:21:22.356Z,9.43
2022-08-24T18:23:50.241Z,8.18
2022-08-24T18:26:27.680Z,8.43
2022-08-24T18:29:00.473Z,8.00
2022-08-24T18:31:29.987Z,8.35
2022-08-24T18:33:57.318Z,7.72
2022-08-24T18:36:24.458Z,7.50
2022-08-24T18:38:52.633Z,7.90
2022-08-24T18:41:20.553Z,7.68
2022-08-24T18:43:48.178Z,7.22
2022-08-24T18:46:15.488Z,8.80
2022-08-24T18:48:42.720Z,7.63
2022-08-24T18:51:14.286Z,7.78
2022-08-24T18:53:42.048Z,7.97
2022-08-24T18:56:12.449Z,7.63
2022-08-24T18:58:40.324Z,7.18
2022-08-24T19:01:07.994Z,7.13
2022-08-24T19:03:35.517Z,7.13
2022-08-24T19:06:02.811Z,7.30
2022-08-24T19:08:30.035Z,6.30
2022-08-24T19:10:57.268Z,6.55
2022-08-24T19:13:24.484Z,7.28
2022-08-24T19:15:51.844Z,7.03
2022-08-24T19:18:20.933Z,6.85
2022-08-24T19:20:53.936Z,9.05
2022-08-24T19:23:36.936Z,8.15
2022-08-24T19:26:04.615Z,7.55
2022-08-24T19:28:32.631Z,7.38
2022-08-24T19:31:02.319Z,7.43
2022-08-24T19:33:37.202Z,6.32
2022-08-24T19:36:05.603Z,6.75
2022-08-24T19:38:33.110Z,7.22
2022-08-24T19:41:02.008Z,8.10
2022-08-24T19:44:00.737Z,7.38
2022-08-24T19:46:27.977Z,7.30
2022-08-24T19:48:55.432Z,7.72
2022-08-24T19:51:22.673Z,7.53
2022-08-24T19:53:50.256Z,7.38
2022-08-24T19:56:17.473Z,6.15
2022-08-24T19:59:36.518Z,7.20
2022-08-24T20:02:03.915Z,6.97
2022-08-24T20:04:31.209Z,9.63
2022-08-24T20:06:58.401Z,10.57
2022-08-24T20:09:26.607Z,9.20
2022-08-24T20:11:53.759Z,10.93
2022-08-24T20:14:21.011Z,10.20
2022-08-24T20:16:48.239Z,10.35
2022-08-24T20:19:15.345Z,10.85
2022-08-24T20:21:42.500Z,8.68
2022-08-24T20:24:10.619Z,9.93
2022-08-24T20:26:43.637Z,11.38
2022-08-24T20:29:12.716Z,9.98
2022-08-24T20:31:40.773Z,8.60
2022-08-24T20:34:08.006Z,8.50
2022-08-24T20:36:39.410Z,8.07
2022-08-24T20:39:10.594Z,8.55
2022-08-24T20:41:39.635Z,8.32
2022-08-24T20:44:09.785Z,8.10
2022-08-24T20:46:39.224Z,8.40
2022-08-24T20:49:08.007Z,11.70
2022-08-24T20:51:41.991Z,10.18
2022-08-24T20:54:11.095Z,9.60
2022-08-24T20:56:38.502Z,10.00
2022-08-24T20:59:09.283Z,9.48
2022-08-24T21:01:37.344Z,11.18
2022-08-24T21:04:05.645Z,9.65
2022-08-24T21:06:33.709Z,10.40
2022-08-24T21:09:01.631Z,11.85
2022-08-24T21:11:29.124Z,9.80
2022-08-24T21:13:56.360Z,9.32
2022-08-24T21:16:23.843Z,10.40
2022-08-24T21:18:51.059Z,11.32
2022-08-24T21:21:18.213Z,5.00
2022-08-24T21:23:45.299Z,6.88
2022-08-24T21:26:14.737Z,8.68
2022-08-24T21:28:43.436Z,11.40
2022-08-24T21:33:56.624Z,8.05
2022-08-24T21:36:24.921Z,11.30
2022-08-24T21:38:54.457Z,8.95
2022-08-24T21:41:22.346Z,12.55
2022-08-24T21:43:50.746Z,11.20
2022-08-24T21:46:18.061Z,12.07
2022-08-24T21:48:46.207Z,9.00
2022-08-24T21:51:13.329Z,9.82
2022-08-24T21:53:40.508Z,12.45
2022-08-24T21:56:07.697Z,11.55
2022-08-24T21:58:34.920Z,11.18
2022-08-24T22:01:03.148Z,12.65
2022-08-24T22:03:37.374Z,13.93
2022-08-24T22:06:10.100Z,14.23
2022-08-24T22:08:41.721Z,13.65
2022-08-24T22:11:14.832Z,13.27
2022-08-24T22:13:42.402Z,12.48
2022-08-24T22:16:11.024Z,13.10
2022-08-24T22:21:10.314Z,11.63
2022-08-24T22:23:38.348Z,10.95
2022-08-24T22:26:06.477Z,10.65
2022-08-24T22:28:36.132Z,13.63
2022-08-24T22:31:12.927Z,14.15
2022-08-24T22:33:40.074Z,9.40
2022-08-24T22:36:10.867Z,10.13
2022-08-24T22:38:38.717Z,12.07
2022-08-24T22:41:07.460Z,11.50
2022-08-24T22:43:53.070Z,11.75
2022-08-24T22:46:21.671Z,9.23
2022-08-24T22:51:16.763Z,8.77
2022-08-24T22:53:44.514Z,8.52
2022-08-24T22:56:31.041Z,9.13
2022-08-24T22:59:00.370Z,13.43
2022-08-24T23:01:36.672Z,11.73
2022-08-24T23:04:09.285Z,8.48
2022-08-24T23:06:36.713Z,9.80
2022-08-24T23:09:05.956Z,9.02
2022-08-24T23:11:33.953Z,9.95
2022-08-24T23:14:02.735Z,8.00
2022-08-24T23:16:32.804Z,7.35
2022-08-24T23:19:18.675Z,7.65
2022-08-24T23:21:46.230Z,7.47
2022-08-24T23:24:13.731Z,7.95
2022-08-24T23:26:42.450Z,8.52
2022-08-24T23:29:12.286Z,8.38
2022-08-24T23:31:40.655Z,7.38
2022-08-24T23:34:07.906Z,8.73
2022-08-24T23:36:36.347Z,10.05
2022-08-24T23:39:06.199Z,8.45
2022-08-24T23:41:37.667Z,7.88
2022-08-24T23:44:09.842Z,9.73
2022-08-24T23:46:37.708Z,7.72
2022-08-24T23:49:05.696Z,9.57
2022-08-24T23:51:33.322Z,8.18
2022-08-24T23:54:00.868Z,10.57
2022-08-24T23:56:32.068Z,9.90
2022-08-24T23:59:10.535Z,11.13
